createdAt,value
2018-04-19T00:00:17.112Z,99.70
2018-04-19T00:02:44.642Z,99.70
2018-04-19T00:05:12.165Z,99.90
2018-04-19T00:07:39.664Z,99.90
2018-04-19T00:10:07.956Z,99.90
2018-04-19T00:12:36.257Z,99.90
2018-04-19T00:15:03.766Z,99.90
2018-04-19T00:17:31.269Z,99.90
2018-04-19T00:19:58.798Z,99.90
2018-04-19T00:22:26.317Z,99.90
2018-04-19T00:24:53.844Z,99.90
2018-04-19T00:27:21.377Z,99.90
2018-04-19T00:29:49.693Z,99.90
2018-04-19T00:32:17.228Z,99.90
2018-04-19T00:34:44.746Z,99.90
2018-04-19T00:37:12.262Z,99.90
2018-04-19T00:39:40.649Z,99.90
2018-04-19T00:42:08.170Z,99.90
2018-04-19T00:44:36.452Z,99.90
2018-04-19T00:47:04.749Z,99.90
2018-04-19T00:49:32.248Z,99.90
2018-04-19T00:51:59.789Z,99.90
2018-04-19T00:54:27.300Z,99.90
2018-04-19T00:56:54.828Z,99.90
2018-04-19T00:59:22.328Z,99.90
2018-04-19T01:01:49.853Z,99.90
2018-04-19T01:04:17.348Z,99.90
2018-04-19T01:06:44.857Z,99.90
2018-04-19T01:09:12.387Z,99.90
2018-04-19T01:11:39.890Z,99.90
2018-04-19T01:14:07.424Z,99.90
2018-04-19T01:16:34.980Z,99.90
2018-04-19T01:19:02.524Z,99.90
2018-04-19T01:21:30.020Z,99.90
2018-04-19T01:23:57.566Z,99.90
2018-04-19T01:26:25.082Z,99.90
2018-04-19T01:28:52.617Z,99.90
2018-04-19T01:31:20.909Z,99.90
2018-04-19T01:33:48.448Z,99.90
2018-04-19T01:36:25.558Z,99.90
2018-04-19T01:38:53.084Z,99.90
2018-04-19T01:41:21.368Z,99.90
2018-04-19T01:43:49.665Z,99.90
2018-04-19T01:46:17.171Z,99.90
2018-04-19T01:48:44.714Z,99.90
2018-04-19T01:51:12.210Z,99.90
2018-04-19T01:53:39.745Z,99.90
2018-04-19T01:56:07.274Z,99.90
2018-04-19T01:58:34.778Z,99.90
2018-04-19T02:01:02.296Z,99.90
2018-04-19T02:03:29.821Z,99.90
2018-04-19T02:05:57.334Z,99.90
2018-04-19T02:08:24.878Z,99.90
2018-04-19T02:10:52.436Z,99.90
2018-04-19T02:13:19.948Z,99.90
2018-04-19T02:15:47.469Z,99.90
2018-04-19T02:18:14.981Z,99.90
2018-04-19T02:20:42.534Z,99.90
2018-04-19T02:23:10.072Z,99.90
2018-04-19T02:25:37.589Z,99.90
2018-04-19T02:28:05.114Z,99.90
2018-04-19T02:30:32.635Z,99.90
2018-04-19T02:33:00.185Z,99.90
2018-04-19T02:35:27.690Z,99.90
2018-04-19T02:37:55.973Z,99.90
2018-04-19T02:40:23.493Z,99.90
2018-04-19T02:42:51.011Z,99.90
2018-04-19T02:45:18.525Z,99.90
2018-04-19T02:47:46.829Z,99.90
2018-04-19T02:50:14.338Z,99.90
2018-04-19T02:52:41.867Z,99.90
2018-04-19T02:55:09.395Z,99.90
2018-04-19T02:57:37.668Z,99.90
2018-04-19T03:00:05.197Z,99.90
2018-04-19T03:02:32.702Z,99.90
2018-04-19T03:05:00.243Z,99.90
2018-04-19T03:07:28.545Z,99.90
2018-04-19T03:09:56.094Z,99.90
2018-04-19T03:12:23.625Z,99.90
2018-04-19T03:14:51.130Z,99.90
2018-04-19T03:17:18.648Z,99.90
2018-04-19T03:19:46.943Z,99.90
2018-04-19T03:22:14.484Z,99.90
2018-04-19T03:24:42.797Z,99.90
2018-04-19T03:27:10.327Z,99.90
2018-04-19T03:29:38.602Z,99.90
2018-04-19T03:32:06.881Z,99.90
2018-04-19T03:34:34.394Z,99.90
2018-04-19T03:37:01.952Z,99.90
2018-04-19T03:39:29.490Z,99.90
2018-04-19T03:41:57.029Z,99.90
2018-04-19T03:44:24.556Z,99.90
2018-04-19T03:46:52.058Z,99.90
2018-04-19T03:49:19.593Z,99.90
2018-04-19T03:51:47.872Z,99.90
2018-04-19T03:54:16.154Z,99.90
2018-04-19T03:56:43.691Z,99.90
2018-04-19T03:59:12.024Z,99.90
2018-04-19T04:01:39.544Z,99.90
2018-04-19T04:04:07.100Z,99.90
2018-04-19T04:06:34.628Z,99.90
2018-04-19T04:09:02.186Z,99.90
2018-04-19T04:11:29.696Z,99.90
2018-04-19T04:13:57.216Z,99.90
2018-04-19T04:16:36.704Z,99.90
2018-04-19T04:19:16.085Z,99.90
2018-04-19T04:21:55.449Z,99.90
2018-04-19T04:24:23.732Z,99.90
2018-04-19T04:26:51.997Z,99.90
2018-04-19T04:29:20.272Z,99.90
2018-04-19T04:31:48.590Z,99.90
2018-04-19T04:34:16.136Z,99.90
2018-04-19T04:36:43.665Z,99.90
2018-04-19T04:39:11.963Z,99.90
2018-04-19T04:41:39.474Z,99.90
2018-04-19T04:44:07.021Z,99.90
2018-04-19T04:46:34.529Z,99.90
2018-04-19T04:49:02.822Z,99.90
2018-04-19T04:51:30.373Z,99.90
2018-04-19T04:53:57.876Z,99.90
2018-04-19T04:56:25.403Z,99.90
2018-04-19T04:58:53.695Z,99.90
2018-04-19T05:01:21.205Z,99.90
2018-04-19T05:03:49.528Z,99.90
2018-04-19T05:06:17.041Z,99.90
2018-04-19T05:08:45.373Z,99.90
2018-04-19T05:11:12.925Z,99.90
2018-04-19T05:13:40.442Z,99.90
2018-04-19T05:16:08.789Z,99.90
2018-04-19T05:18:36.298Z,99.90
2018-04-19T05:21:03.815Z,99.90
2018-04-19T05:23:31.345Z,99.90
2018-04-19T05:25:58.851Z,99.90
2018-04-19T05:28:27.153Z,99.90
2018-04-19T05:30:54.679Z,99.90
2018-04-19T05:33:22.981Z,99.90
2018-04-19T05:35:50.529Z,99.90
2018-04-19T05:38:18.790Z,99.90
2018-04-19T05:40:47.108Z,99.90
2018-04-19T05:43:14.669Z,99.90
2018-04-19T05:45:42.985Z,99.90
2018-04-19T05:48:10.514Z,99.90
2018-04-19T05:50:38.056Z,99.90
2018-04-19T05:53:05.571Z,99.90
2018-04-19T05:55:33.123Z,99.90
2018-04-19T05:58:00.635Z,99.90
2018-04-19T06:00:28.171Z,99.90
2018-04-19T06:02:56.453Z,99.90
2018-04-19T06:05:23.994Z,99.90
2018-04-19T06:07:52.285Z,99.90
2018-04-19T06:10:19.798Z,99.90
2018-04-19T06:12:47.302Z,99.90
2018-04-19T06:15:14.852Z,99.90
2018-04-19T06:17:42.347Z,99.90
2018-04-19T06:20:09.867Z,99.90
2018-04-19T06:22:38.158Z,99.90
2018-04-19T06:25:06.450Z,99.90
2018-04-19T06:27:34.085Z,99.90
2018-04-19T06:30:01.615Z,99.90
2018-04-19T06:32:29.178Z,99.90
2018-04-19T06:34:56.714Z,99.90
2018-04-19T06:37:24.254Z,99.90
2018-04-19T06:39:51.759Z,99.90
2018-04-19T06:42:19.381Z,99.90
2018-04-19T06:44:46.905Z,99.90
2018-04-19T06:47:15.202Z,99.90
2018-04-19T06:49:42.739Z,99.90
2018-04-19T06:52:11.018Z,99.90
2018-04-19T06:54:38.529Z,99.90
2018-04-19T06:57:06.056Z,99.90
2018-04-19T06:59:33.582Z,99.90
2018-04-19T07:02:01.878Z,99.90
2018-04-19T07:04:29.401Z,99.90
2018-04-19T07:06:56.928Z,99.90
2018-04-19T07:09:24.448Z,99.90
2018-04-19T07:11:51.979Z,99.90
2018-04-19T07:14:19.505Z,99.80
2018-04-19T07:16:47.031Z,98.70
2018-04-19T07:19:15.329Z,98.40
2018-04-19T07:21:42.846Z,98.40
2018-04-19T07:24:11.176Z,97.50
2018-04-19T07:26:38.738Z,97.50
2018-04-19T07:29:06.283Z,97.80
2018-04-19T07:31:33.804Z,97.20
2018-04-19T07:34:02.114Z,96.10
2018-04-19T07:36:29.655Z,96.10
2018-04-19T07:38:57.175Z,95.60
2018-04-19T07:41:24.704Z,95.70
2018-04-19T07:43:52.199Z,94.80
2018-04-19T07:46:19.730Z,94.50
2018-04-19T07:48:47.286Z,94.00
2018-04-19T07:51:14.778Z,93.20
2018-04-19T07:53:42.298Z,93.60
2018-04-19T07:56:09.838Z,93.20
2018-04-19T07:58:37.343Z,93.70
2018-04-19T08:01:04.852Z,92.90
2018-04-19T08:03:32.377Z,93.10
2018-04-19T08:05:59.889Z,92.40
2018-04-19T08:08:27.424Z,92.00
2018-04-19T08:10:54.929Z,92.00
2018-04-19T08:13:22.471Z,92.20
2018-04-19T08:15:49.988Z,91.60
2018-04-19T08:18:18.305Z,91.20
2018-04-19T08:20:46.601Z,90.80
2018-04-19T08:23:14.101Z,90.80
2018-04-19T08:25:42.397Z,90.30
2018-04-19T08:28:09.893Z,90.30
2018-04-19T08:30:37.445Z,90.20
2018-04-19T08:33:04.949Z,90.00
2018-04-19T08:35:33.228Z,89.80
2018-04-19T08:38:01.555Z,87.30
2018-04-19T08:40:29.056Z,87.20
2018-04-19T08:42:57.357Z,86.60
2018-04-19T08:45:24.853Z,86.60
2018-04-19T08:47:52.368Z,85.10
2018-04-19T08:50:19.965Z,84.50
2018-04-19T08:52:48.207Z,84.10
2018-04-19T08:55:15.728Z,83.70
2018-04-19T08:57:43.230Z,84.40
2018-04-19T09:00:10.759Z,84.70
2018-04-19T09:02:39.029Z,80.10
2018-04-19T09:05:06.545Z,80.10
2018-04-19T09:07:34.057Z,80.70
2018-04-19T09:10:02.469Z,80.50
2018-04-19T09:12:29.987Z,80.30
2018-04-19T09:14:58.243Z,81.70
2018-04-19T09:17:25.761Z,81.60
2018-04-19T09:19:53.265Z,78.80
2018-04-19T09:22:20.806Z,77.10
2018-04-19T09:24:48.348Z,74.10
2018-04-19T09:27:15.860Z,77.20
2018-04-19T09:29:44.121Z,73.40
2018-04-19T09:32:11.628Z,72.80
2018-04-19T09:34:39.125Z,69.70
2018-04-19T09:37:06.674Z,65.00
2018-04-19T09:39:34.201Z,67.30
2018-04-19T09:42:02.441Z,65.40
2018-04-19T09:44:30.737Z,65.70
2018-04-19T09:46:59.001Z,68.20
2018-04-19T09:49:27.285Z,67.10
2018-04-19T09:51:54.840Z,67.30
2018-04-19T09:54:22.326Z,60.90
2018-04-19T09:56:49.858Z,63.20
2018-04-19T09:59:18.162Z,64.40
2018-04-19T10:01:52.197Z,64.10
2018-04-19T10:04:25.273Z,60.70
2018-04-19T10:06:52.797Z,59.80
2018-04-19T10:09:20.334Z,61.40
2018-04-19T10:11:47.846Z,59.50
2018-04-19T10:14:15.355Z,56.10
2018-04-19T10:16:43.627Z,58.40
2018-04-19T10:19:11.161Z,58.20
2018-04-19T10:21:38.701Z,56.80
2018-04-19T10:24:06.214Z,56.90
2018-04-19T10:26:35.674Z,54.90
2018-04-19T10:29:03.224Z,54.80
2018-04-19T10:31:30.746Z,57.00
2018-04-19T10:33:59.049Z,51.50
2018-04-19T10:36:27.311Z,51.90
2018-04-19T10:38:54.825Z,51.90
2018-04-19T10:41:22.329Z,52.20
2018-04-19T10:43:49.861Z,50.10
2018-04-19T10:46:18.150Z,46.80
2018-04-19T10:48:46.433Z,47.60
2018-04-19T10:51:14.730Z,44.60
2018-04-19T10:53:42.250Z,44.50
2018-04-19T10:56:10.537Z,45.70
2018-04-19T10:58:38.845Z,42.60
2018-04-19T11:01:06.339Z,42.50
2018-04-19T11:03:33.877Z,41.70
2018-04-19T11:06:01.390Z,41.60
2018-04-19T11:08:29.660Z,42.50
2018-04-19T11:10:57.941Z,40.20
2018-04-19T11:13:26.214Z,40.30
2018-04-19T11:15:54.550Z,41.50
2018-04-19T11:18:22.024Z,41.50
2018-04-19T11:20:49.539Z,40.70
2018-04-19T11:23:17.064Z,40.60
2018-04-19T11:25:45.344Z,39.90
2018-04-19T11:28:13.636Z,39.70
2018-04-19T11:30:41.144Z,39.70
2018-04-19T11:33:08.666Z,40.80
2018-04-19T11:35:36.221Z,38.20
2018-04-19T11:38:03.716Z,38.80
2018-04-19T11:40:31.253Z,39.10
2018-04-19T11:42:58.754Z,38.10
2018-04-19T11:45:26.297Z,39.80
2018-04-19T11:47:53.806Z,39.60
2018-04-19T11:50:21.335Z,38.80
2018-04-19T11:52:48.850Z,39.10
2018-04-19T11:55:16.393Z,40.00
2018-04-19T11:57:43.877Z,37.10
2018-04-19T12:00:11.373Z,38.50
2018-04-19T12:02:39.683Z,37.50
2018-04-19T12:05:07.208Z,37.30
2018-04-19T12:07:35.502Z,37.20
2018-04-19T12:10:02.981Z,37.20
2018-04-19T12:12:30.506Z,37.10
2018-04-19T12:14:58.785Z,36.50
2018-04-19T12:17:27.074Z,36.30
2018-04-19T12:19:55.370Z,34.90
2018-04-19T12:22:22.895Z,34.90
2018-04-19T12:24:51.150Z,37.80
2018-04-19T12:27:18.646Z,37.80
2018-04-19T12:29:46.163Z,37.10
2018-04-19T12:32:13.683Z,36.70
2018-04-19T12:34:41.205Z,35.90
2018-04-19T12:37:09.463Z,34.90
2018-04-19T12:39:36.981Z,34.90
2018-04-19T12:42:04.503Z,34.70
2018-04-19T12:44:32.833Z,35.50
2018-04-19T12:47:00.354Z,35.40
2018-04-19T12:49:27.896Z,36.10
2018-04-19T12:51:56.192Z,35.30
2018-04-19T12:54:23.725Z,35.30
2018-04-19T12:56:52.006Z,36.60
2018-04-19T12:59:20.299Z,35.80
2018-04-19T13:01:47.886Z,35.70
2018-04-19T13:04:15.393Z,35.10
2018-04-19T13:06:42.933Z,37.00
2018-04-19T13:09:10.441Z,35.30
2018-04-19T13:11:37.968Z,35.80
2018-04-19T13:14:05.477Z,36.00
2018-04-19T13:16:33.015Z,37.30
2018-04-19T13:19:00.589Z,37.40
2018-04-19T13:21:28.391Z,38.20
2018-04-19T13:23:55.928Z,37.50
2018-04-19T13:26:23.753Z,35.70
2018-04-19T13:28:51.361Z,34.90
2018-04-19T13:31:18.869Z,36.00
2018-04-19T13:33:47.154Z,37.10
2018-04-19T13:36:14.722Z,37.00
2018-04-19T13:38:42.303Z,36.20
2018-04-19T13:41:09.890Z,36.00
2018-04-19T13:43:37.401Z,35.30
2018-04-19T13:46:04.920Z,35.60
2018-04-19T13:48:32.432Z,35.80
2018-04-19T13:50:59.977Z,35.40
2018-04-19T13:53:27.491Z,37.50
2018-04-19T13:55:55.023Z,36.80
2018-04-19T13:58:22.558Z,36.00
2018-04-19T14:00:50.059Z,35.80
2018-04-19T14:03:17.582Z,34.90
2018-04-19T14:05:45.131Z,36.20
2018-04-19T14:08:13.395Z,33.30
2018-04-19T14:10:41.684Z,36.20
2018-04-19T14:13:09.206Z,36.00
2018-04-19T14:15:37.504Z,37.00
2018-04-19T14:18:05.785Z,33.40
2018-04-19T14:20:33.316Z,33.40
2018-04-19T14:23:00.847Z,34.50
2018-04-19T14:25:28.362Z,34.50
2018-04-19T14:27:56.687Z,35.40
2018-04-19T14:30:24.197Z,35.30
2018-04-19T14:32:51.748Z,35.10
2018-04-19T14:35:20.026Z,34.40
2018-04-19T14:37:48.304Z,35.00
2018-04-19T14:40:16.559Z,33.80
2018-04-19T14:42:44.095Z,33.70
2018-04-19T14:45:11.616Z,33.10
2018-04-19T14:47:39.146Z,35.10
2018-04-19T14:50:07.426Z,34.40
2018-04-19T14:52:35.737Z,34.80
2018-04-19T14:55:04.011Z,35.80
2018-04-19T14:57:31.558Z,35.80
2018-04-19T14:59:59.230Z,36.10
2018-04-19T15:02:26.748Z,34.70
2018-04-19T15:04:55.049Z,34.50
2018-04-19T15:07:23.303Z,35.50
2018-04-19T15:09:51.618Z,35.60
2018-04-19T15:12:19.317Z,35.50
2018-04-19T15:14:46.859Z,34.20
2018-04-19T15:17:14.396Z,35.60
2018-04-19T15:19:41.946Z,33.90
2018-04-19T15:22:09.484Z,35.60
2018-04-19T15:24:37.991Z,33.90
2018-04-19T15:27:05.491Z,33.90
2018-04-19T15:29:33.022Z,35.40
2018-04-19T15:32:00.527Z,35.20
2018-04-19T15:34:28.432Z,34.70
2018-04-19T15:36:55.933Z,34.50
2018-04-19T15:39:23.462Z,34.60
2018-04-19T15:41:51.006Z,34.40
2018-04-19T15:44:18.502Z,35.50
2018-04-19T15:46:46.042Z,35.30
2018-04-19T15:49:13.575Z,35.20
2018-04-19T15:51:41.830Z,36.30
2018-04-19T15:54:10.117Z,35.70
2018-04-19T15:56:38.543Z,34.90
2018-04-19T15:59:06.034Z,34.90
2018-04-19T16:01:33.549Z,35.00
2018-04-19T16:04:01.075Z,35.10
2018-04-19T16:06:29.519Z,35.40
2018-04-19T16:08:57.019Z,35.40
2018-04-19T16:11:24.553Z,35.10
2018-04-19T16:13:52.063Z,34.30
2018-04-19T16:16:19.696Z,35.40
2018-04-19T16:18:48.145Z,34.10
2018-04-19T16:21:15.694Z,34.10
2018-04-19T16:23:43.248Z,35.10
2018-04-19T16:26:10.774Z,35.10
2018-04-19T16:28:38.550Z,34.70
2018-04-19T16:31:06.081Z,33.80
2018-04-19T16:33:33.634Z,34.50
2018-04-19T16:36:01.125Z,34.80
2018-04-19T16:38:28.653Z,34.80
2018-04-19T16:40:56.359Z,35.40
2018-04-19T16:43:23.937Z,35.90
2018-04-19T16:45:51.469Z,35.20
2018-04-19T16:48:19.019Z,35.80
2018-04-19T16:50:46.582Z,35.40
2018-04-19T16:53:14.113Z,35.20
2018-04-19T16:55:41.680Z,35.50
2018-04-19T16:58:09.198Z,37.70
2018-04-19T17:00:36.869Z,37.40
2018-04-19T17:03:04.428Z,37.00
2018-04-19T17:05:31.950Z,36.80
2018-04-19T17:07:59.497Z,37.20
2018-04-19T17:10:26.984Z,37.80
2018-04-19T17:12:54.513Z,37.40
2018-04-19T17:15:22.818Z,38.30
2018-04-19T17:17:50.356Z,38.20
2018-04-19T17:20:17.894Z,38.00
2018-04-19T17:22:45.530Z,38.30
2018-04-19T17:25:13.810Z,40.10
2018-04-19T17:27:42.096Z,39.60
2018-04-19T17:30:10.416Z,37.90
2018-04-19T17:32:37.916Z,37.80
2018-04-19T17:35:06.184Z,39.20
2018-04-19T17:37:33.729Z,39.10
2018-04-19T17:40:01.272Z,39.60
2018-04-19T17:42:28.827Z,39.30
2018-04-19T17:44:56.505Z,39.90
2018-04-19T17:47:24.022Z,39.30
2018-04-19T17:49:51.583Z,39.20
2018-04-19T17:52:19.082Z,39.00
2018-04-19T17:54:46.675Z,39.20
2018-04-19T17:57:15.110Z,39.40
2018-04-19T17:59:43.209Z,39.30
2018-04-19T18:02:10.722Z,39.00
2018-04-19T18:04:38.537Z,39.60
2018-04-19T18:07:06.098Z,40.10
2018-04-19T18:09:33.694Z,40.70
2018-04-19T18:12:01.230Z,40.30
2018-04-19T18:14:29.643Z,40.20
2018-04-19T18:16:57.206Z,40.10
2018-04-19T18:19:25.299Z,39.60
2018-04-19T18:21:53.477Z,40.40
2018-04-19T18:24:21.047Z,40.30
2018-04-19T18:26:49.131Z,40.70
2018-04-19T18:29:16.951Z,40.60
2018-04-19T18:31:45.258Z,41.00
2018-04-19T18:34:13.074Z,41.00
2018-04-19T18:36:40.693Z,41.50
2018-04-19T18:39:08.241Z,42.20
2018-04-19T18:41:35.990Z,41.90
2018-04-19T18:44:04.076Z,42.40
2018-04-19T18:46:31.708Z,42.00
2018-04-19T18:48:59.751Z,42.60
2018-04-19T18:51:27.326Z,42.70
2018-04-19T18:53:55.266Z,42.90
2018-04-19T18:56:24.203Z,43.10
2018-04-19T18:58:52.239Z,43.00
2018-04-19T19:01:20.325Z,43.50
2018-04-19T19:03:48.084Z,43.60
2018-04-19T19:06:15.828Z,43.40
2018-04-19T19:08:44.212Z,43.20
2018-04-19T19:11:13.203Z,43.40
2018-04-19T19:13:41.758Z,43.40
2018-04-19T19:16:10.499Z,44.00
2018-04-19T19:18:50.567Z,43.60
2018-04-19T19:21:18.505Z,43.20
2018-04-19T19:23:46.090Z,43.70
2018-04-19T19:26:13.757Z,43.90
2018-04-19T19:28:42.308Z,44.30
2018-04-19T19:31:10.793Z,45.20
2018-04-19T19:33:38.886Z,44.80
2018-04-19T19:36:07.308Z,45.20
2018-04-19T19:38:35.832Z,45.10
2018-04-19T19:41:03.658Z,45.10
2018-04-19T19:43:31.552Z,45.70
2018-04-19T19:45:59.785Z,46.50
2018-04-19T19:48:27.671Z,45.70
2018-04-19T19:50:55.303Z,46.00
2018-04-19T19:53:23.170Z,46.40
2018-04-19T19:55:51.596Z,46.70
2018-04-19T19:58:19.869Z,46.90
2018-04-19T20:00:47.696Z,47.00
2018-04-19T20:03:16.005Z,47.40
2018-04-19T20:05:44.406Z,47.30
2018-04-19T20:08:11.928Z,47.90
2018-04-19T20:10:40.111Z,47.60
2018-04-19T20:13:07.707Z,47.80
2018-04-19T20:15:35.737Z,48.20
2018-04-19T20:18:03.549Z,47.70
2018-04-19T20:20:31.169Z,47.90
2018-04-19T20:22:58.959Z,48.30
2018-04-19T20:25:26.693Z,48.50
2018-04-19T20:27:54.652Z,48.70
2018-04-19T20:30:22.255Z,49.00
2018-04-19T20:32:50.934Z,48.90
2018-04-19T20:35:19.788Z,49.70
2018-04-19T20:37:47.544Z,49.70
2018-04-19T20:40:15.887Z,49.60
2018-04-19T20:42:43.397Z,49.50
2018-04-19T20:45:11.107Z,48.80
2018-04-19T20:47:39.013Z,49.70
2018-04-19T20:50:07.449Z,49.90
2018-04-19T20:52:35.033Z,49.90
2018-04-19T20:55:03.309Z,50.10
2018-04-19T20:57:31.004Z,50.10
2018-04-19T20:59:58.969Z,50.40
2018-04-19T21:02:26.560Z,50.30
2018-04-19T21:04:54.873Z,51.30
2018-04-19T21:07:22.377Z,51.20
2018-04-19T21:09:49.892Z,51.40
2018-04-19T21:12:17.537Z,51.50
2018-04-19T21:14:45.159Z,52.10
2018-04-19T21:17:13.453Z,52.00
2018-04-19T21:19:41.764Z,52.00
2018-04-19T21:22:09.270Z,52.00
2018-04-19T21:24:36.879Z,52.10
2018-04-19T21:27:04.395Z,51.20
2018-04-19T21:29:31.935Z,50.90
2018-04-19T21:31:59.436Z,51.80
2018-04-19T21:34:26.985Z,52.70
2018-04-19T21:36:55.245Z,52.90
2018-04-19T21:39:22.782Z,52.80
2018-04-19T21:41:50.321Z,53.70
2018-04-19T21:44:17.809Z,52.80
2018-04-19T21:46:45.333Z,53.50
2018-04-19T21:49:12.815Z,54.10
2018-04-19T21:51:40.325Z,54.90
2018-04-19T21:54:08.593Z,53.60
2018-04-19T21:56:36.916Z,54.30
2018-04-19T21:59:04.424Z,54.30
2018-04-19T22:01:32.750Z,55.20
2018-04-19T22:04:00.279Z,55.10
2018-04-19T22:06:27.782Z,55.60
2018-04-19T22:08:55.319Z,55.40
2018-04-19T22:11:22.834Z,56.90
2018-04-19T22:13:51.167Z,57.00
2018-04-19T22:16:18.670Z,57.00
2018-04-19T22:18:46.188Z,56.60
2018-04-19T22:21:13.677Z,56.30
2018-04-19T22:23:41.206Z,56.10
2018-04-19T22:26:08.749Z,56.10
2018-04-19T22:28:36.265Z,56.10
2018-04-19T22:31:03.785Z,57.20
2018-04-19T22:33:31.276Z,57.50
2018-04-19T22:35:59.557Z,60.20
2018-04-19T22:38:27.851Z,60.70
2018-04-19T22:40:55.384Z,60.70
2018-04-19T22:43:22.874Z,63.60
2018-04-19T22:45:50.404Z,64.20
2018-04-19T22:48:18.680Z,67.40
2018-04-19T22:50:46.955Z,68.90
2018-04-19T22:53:15.290Z,69.40
2018-04-19T22:55:42.792Z,69.40
2018-04-19T22:58:11.101Z,73.60
2018-04-19T23:00:38.665Z,73.50
2018-04-19T23:03:06.202Z,73.40
2018-04-19T23:05:34.499Z,73.00
2018-04-19T23:08:02.050Z,72.90
2018-04-19T23:10:29.553Z,74.80
2018-04-19T23:12:57.087Z,77.00
2018-04-19T23:15:24.627Z,78.30
2018-04-19T23:17:52.140Z,78.80
2018-04-19T23:20:19.699Z,78.20
2018-04-19T23:22:47.221Z,78.00
2018-04-19T23:25:14.715Z,77.70
2018-04-19T23:27:42.234Z,79.20
2018-04-19T23:30:09.740Z,80.00
2018-04-19T23:32:37.232Z,81.30
2018-04-19T23:35:05.579Z,83.80
2018-04-19T23:37:33.086Z,83.80
2018-04-19T23:40:01.400Z,85.90
2018-04-19T23:42:28.953Z,85.90
2018-04-19T23:44:56.558Z,87.20
2018-04-19T23:47:24.076Z,88.50
2018-04-19T23:49:51.608Z,90.10
2018-04-19T23:52:19.123Z,90.40
2018-04-19T23:54:47.421Z,91.20
2018-04-19T23:57:14.914Z,91.10
2018-04-19T23:59:42.408Z,91.50
